sensor_id;sensor_type;location;lat;lon;timestamp;pressure;altitude;pressure_sealevel;temperature;humidity
70909;BME280;58554;52.006;5.926;2023-06-10T00:02:12;100686.38;;;24.65;37.89
70909;BME280;58554;52.006;5.926;2023-06-10T00:04:39;100690.28;;;24.63;37.80
70909;BME280;58554;52.006;5.926;2023-06-10T00:07:08;100681.50;;;24.61;37.64
70909;BME280;58554;52.006;5.926;2023-06-10T00:09:35;100689.31;;;24.56;38.04
70909;BME280;58554;52.006;5.926;2023-06-10T00:12:02;100690.91;;;24.50;37.95
70909;BME280;58554;52.006;5.926;2023-06-10T00:14:29;100688.06;;;24.43;38.04
70909;BME280;58554;52.006;5.926;2023-06-10T00:16:55;100694.69;;;24.41;37.82
70909;BME280;58554;52.006;5.926;2023-06-10T00:19:22;100691.31;;;24.39;37.76
70909;BME280;58554;52.006;5.926;2023-06-10T00:21:48;100692.34;;;24.38;38.04
70909;BME280;58554;52.006;5.926;2023-06-10T00:24:17;100699.41;;;24.39;37.77
70909;BME280;58554;52.006;5.926;2023-06-10T00:26:44;100692.81;;;24.41;37.83
70909;BME280;58554;52.006;5.926;2023-06-10T00:29:11;100694.69;;;24.41;37.94
70909;BME280;58554;52.006;5.926;2023-06-10T00:31:37;100694.69;;;24.41;37.83
70909;BME280;58554;52.006;5.926;2023-06-10T00:34:04;100690.97;;;24.42;37.62
70909;BME280;58554;52.006;5.926;2023-06-10T00:36:30;100695.06;;;24.38;37.33
70909;BME280;58554;52.006;5.926;2023-06-10T00:38:57;100694.72;;;24.33;37.17
70909;BME280;58554;52.006;5.926;2023-06-10T00:41:26;100696.94;;;24.29;37.09
70909;BME280;58554;52.006;5.926;2023-06-10T00:43:52;100698.16;;;24.27;37.29
70909;BME280;58554;52.006;5.926;2023-06-10T00:46:19;100701.41;;;24.22;37.08
70909;BME280;58554;52.006;5.926;2023-06-10T00:48:47;100703.28;;;24.21;37.38
70909;BME280;58554;52.006;5.926;2023-06-10T00:51:13;100702.22;;;24.22;37.33
70909;BME280;58554;52.006;5.926;2023-06-10T00:53:41;100715.41;;;24.26;37.18
70909;BME280;58554;52.006;5.926;2023-06-10T00:56:07;100705.44;;;24.26;37.29
70909;BME280;58554;52.006;5.926;2023-06-10T00:58:38;100700.56;;;24.21;36.84
70909;BME280;58554;52.006;5.926;2023-06-10T01:01:04;100707.47;;;24.16;36.99
70909;BME280;58554;52.006;5.926;2023-06-10T01:03:30;100698.72;;;24.14;36.97
70909;BME280;58554;52.006;5.926;2023-06-10T01:06:00;100698.22;;;24.10;37.28
70909;BME280;58554;52.006;5.926;2023-06-10T01:08:40;100697.94;;;24.05;36.98
70909;BME280;58554;52.006;5.926;2023-06-10T01:11:17;100703.50;;;24.03;37.24
70909;BME280;58554;52.006;5.926;2023-06-10T01:13:51;100693.72;;;24.02;37.23
70909;BME280;58554;52.006;5.926;2023-06-10T01:16:22;100699.84;;;23.96;37.16
70909;BME280;58554;52.006;5.926;2023-06-10T01:18:50;100699.19;;;23.94;37.15
70909;BME280;58554;52.006;5.926;2023-06-10T01:21:21;100704.38;;;23.96;37.05
70909;BME280;58554;52.006;5.926;2023-06-10T01:23:48;100708.78;;;23.97;36.94
70909;BME280;58554;52.006;5.926;2023-06-10T01:26:15;100703.75;;;23.94;37.24
70909;BME280;58554;52.006;5.926;2023-06-10T01:28:46;100708.78;;;23.97;37.06
70909;BME280;58554;52.006;5.926;2023-06-10T01:31:17;100702.34;;;23.98;37.16
70909;BME280;58554;52.006;5.926;2023-06-10T01:33:55;100707.94;;;23.96;37.23
70909;BME280;58554;52.006;5.926;2023-06-10T01:36:25;100710.81;;;23.95;36.98
70909;BME280;58554;52.006;5.926;2023-06-10T01:38:53;100707.81;;;23.90;37.09
70909;BME280;58554;52.006;5.926;2023-06-10T01:41:23;100709.00;;;23.87;37.14
70909;BME280;58554;52.006;5.926;2023-06-10T01:43:50;100709.84;;;23.88;37.15
70909;BME280;58554;52.006;5.926;2023-06-10T01:46:17;100713.72;;;23.85;37.32
70909;BME280;58554;52.006;5.926;2023-06-10T01:48:43;100715.59;;;23.84;37.34
70909;BME280;58554;52.006;5.926;2023-06-10T01:51:10;100711.94;;;23.77;36.99
70909;BME280;58554;52.006;5.926;2023-06-10T01:53:39;100715.31;;;23.71;37.30
70909;BME280;58554;52.006;5.926;2023-06-10T01:56:05;100709.97;;;23.63;37.35
70909;BME280;58554;52.006;5.926;2023-06-10T01:58:32;100708.47;;;23.60;37.47
70909;BME280;58554;52.006;5.926;2023-06-10T02:00:58;100707.13;;;23.56;37.31
70909;BME280;58554;52.006;5.926;2023-06-10T02:03:25;100707.81;;;23.50;37.69
70909;BME280;58554;52.006;5.926;2023-06-10T02:05:51;100713.88;;;23.44;37.97
70909;BME280;58554;52.006;5.926;2023-06-10T02:08:18;100716.25;;;23.39;38.02
70909;BME280;58554;52.006;5.926;2023-06-10T02:10:47;100715.44;;;23.30;37.96
70909;BME280;58554;52.006;5.926;2023-06-10T02:13:14;100716.78;;;23.26;38.11
70909;BME280;58554;52.006;5.926;2023-06-10T02:15:40;100718.13;;;23.22;38.21
70909;BME280;58554;52.006;5.926;2023-06-10T02:18:07;100713.28;;;23.17;38.17
70909;BME280;58554;52.006;5.926;2023-06-10T02:20:33;100719.19;;;23.13;38.47
70909;BME280;58554;52.006;5.926;2023-06-10T02:23:00;100706.03;;;23.10;38.49
70909;BME280;58554;52.006;5.926;2023-06-10T02:25:26;100718.00;;;23.07;38.63
70909;BME280;58554;52.006;5.926;2023-06-10T02:27:55;100718.00;;;23.07;38.82
70909;BME280;58554;52.006;5.926;2023-06-10T02:30:22;100718.16;;;23.06;38.39
70909;BME280;58554;52.006;5.926;2023-06-10T02:32:49;100712.63;;;22.99;38.86
70909;BME280;58554;52.006;5.926;2023-06-10T02:35:15;100714.81;;;22.95;38.84
70909;BME280;58554;52.006;5.926;2023-06-10T02:37:42;100728.28;;;22.95;38.72
70909;BME280;58554;52.006;5.926;2023-06-10T02:40:10;100724.91;;;22.93;39.28
70909;BME280;58554;52.006;5.926;2023-06-10T02:42:37;100716.84;;;22.85;39.15
70909;BME280;58554;52.006;5.926;2023-06-10T02:45:08;100726.28;;;22.81;39.08
70909;BME280;58554;52.006;5.926;2023-06-10T02:47:34;100726.63;;;22.78;39.37
70909;BME280;58554;52.006;5.926;2023-06-10T02:50:03;100725.25;;;22.74;39.27
70909;BME280;58554;52.006;5.926;2023-06-10T02:52:30;100725.91;;;22.68;39.58
70909;BME280;58554;52.006;5.926;2023-06-10T02:54:57;100723.53;;;22.64;39.71
70909;BME280;58554;52.006;5.926;2023-06-10T02:57:23;100724.72;;;22.62;39.54
70909;BME280;58554;52.006;5.926;2023-06-10T02:59:49;100725.25;;;22.57;39.42
70909;BME280;58554;52.006;5.926;2023-06-10T03:02:19;100724.41;;;22.49;39.59
70909;BME280;58554;52.006;5.926;2023-06-10T03:04:45;100729.94;;;22.47;39.91
70909;BME280;58554;52.006;5.926;2023-06-10T03:07:12;100728.94;;;22.40;39.73
70909;BME280;58554;52.006;5.926;2023-06-10T03:09:38;100727.25;;;22.39;40.29
70909;BME280;58554;52.006;5.926;2023-06-10T03:12:06;100731.94;;;22.37;40.23
70909;BME280;58554;52.006;5.926;2023-06-10T03:14:34;100727.91;;;22.33;39.95
70909;BME280;58554;52.006;5.926;2023-06-10T03:17:01;100728.06;;;22.31;40.28
70909;BME280;58554;52.006;5.926;2023-06-10T03:19:30;100739.19;;;22.28;40.25
70909;BME280;58554;52.006;5.926;2023-06-10T03:22:07;100735.28;;;22.22;40.12
70909;BME280;58554;52.006;5.926;2023-06-10T03:24:35;100738.97;;;22.13;40.22
70909;BME280;58554;52.006;5.926;2023-06-10T03:27:01;100735.44;;;22.05;40.12
70909;BME280;58554;52.006;5.926;2023-06-10T03:29:28;100737.38;;;21.94;40.18
70909;BME280;58554;52.006;5.926;2023-06-10T03:31:55;100740.34;;;21.83;40.73
70909;BME280;58554;52.006;5.926;2023-06-10T03:34:21;100737.81;;;21.73;40.69
70909;BME280;58554;52.006;5.926;2023-06-10T03:36:50;100743.63;;;21.60;40.74
70909;BME280;58554;52.006;5.926;2023-06-10T03:39:17;100746.25;;;21.44;41.03
70909;BME280;58554;52.006;5.926;2023-06-10T03:41:43;100744.28;;;21.28;41.18
70909;BME280;58554;52.006;5.926;2023-06-10T03:44:10;100737.09;;;21.11;41.09
70909;BME280;58554;52.006;5.926;2023-06-10T03:46:36;100746.41;;;20.98;41.71
70909;BME280;58554;52.006;5.926;2023-06-10T03:49:03;100745.78;;;20.87;41.74
70909;BME280;58554;52.006;5.926;2023-06-10T03:51:29;100744.91;;;20.78;41.70
70909;BME280;58554;52.006;5.926;2023-06-10T03:53:58;100745.13;;;20.67;41.95
70909;BME280;58554;52.006;5.926;2023-06-10T03:56:25;100749.06;;;20.54;42.11
70909;BME280;58554;52.006;5.926;2023-06-10T03:58:51;100749.28;;;20.43;42.42
70909;BME280;58554;52.006;5.926;2023-06-10T04:01:18;100753.81;;;20.33;42.70
70909;BME280;58554;52.006;5.926;2023-06-10T04:03:44;100758.97;;;20.26;42.79
70909;BME280;58554;52.006;5.926;2023-06-10T04:06:11;100767.63;;;20.20;42.91
70909;BME280;58554;52.006;5.926;2023-06-10T04:08:37;100765.53;;;20.14;42.97
70909;BME280;58554;52.006;5.926;2023-06-10T04:11:06;100764.47;;;20.07;43.15
70909;BME280;58554;52.006;5.926;2023-06-10T04:13:33;100759.53;;;20.02;43.46
70909;BME280;58554;52.006;5.926;2023-06-10T04:15:59;100762.84;;;19.96;43.55
70909;BME280;58554;52.006;5.926;2023-06-10T04:18:25;100758.75;;;19.92;43.56
70909;BME280;58554;52.006;5.926;2023-06-10T04:20:52;100771.31;;;19.91;43.91
70909;BME280;58554;52.006;5.926;2023-06-10T04:23:18;100773.47;;;19.88;43.84
70909;BME280;58554;52.006;5.926;2023-06-10T04:25:45;100773.75;;;19.85;43.91
70909;BME280;58554;52.006;5.926;2023-06-10T04:28:14;100772.91;;;19.84;44.34
70909;BME280;58554;52.006;5.926;2023-06-10T04:30:40;100772.06;;;19.84;44.55
70909;BME280;58554;52.006;5.926;2023-06-10T04:33:07;100769.38;;;19.84;44.24
70909;BME280;58554;52.006;5.926;2023-06-10T04:35:33;100776.56;;;19.83;44.66
70909;BME280;58554;52.006;5.926;2023-06-10T04:38:00;100778.41;;;19.82;44.69
70909;BME280;58554;52.006;5.926;2023-06-10T04:40:26;100772.34;;;19.80;44.53
70909;BME280;58554;52.006;5.926;2023-06-10T04:42:53;100780.53;;;19.79;44.61
70909;BME280;58554;52.006;5.926;2023-06-10T04:45:22;100776.31;;;19.76;45.00
70909;BME280;58554;52.006;5.926;2023-06-10T04:47:48;100782.53;;;19.77;45.06
70909;BME280;58554;52.006;5.926;2023-06-10T04:50:15;100771.50;;;19.80;45.13
70909;BME280;58554;52.006;5.926;2023-06-10T04:52:41;100780.25;;;19.82;45.10
70909;BME280;58554;52.006;5.926;2023-06-10T04:55:08;100781.78;;;19.85;45.18
70909;BME280;58554;52.006;5.926;2023-06-10T04:57:35;100782.63;;;19.85;45.29
70909;BME280;58554;52.006;5.926;2023-06-10T05:00:01;100777.13;;;19.87;45.25
70909;BME280;58554;52.006;5.926;2023-06-10T05:02:31;100786.44;;;19.92;45.37
70909;BME280;58554;52.006;5.926;2023-06-10T05:04:57;100781.75;;;19.94;45.20
70909;BME280;58554;52.006;5.926;2023-06-10T05:07:24;100777.09;;;19.96;45.35
70909;BME280;58554;52.006;5.926;2023-06-10T05:09:50;100779.31;;;20.01;45.37
70909;BME280;58554;52.006;5.926;2023-06-10T05:12:17;100782.56;;;20.05;45.34
70909;BME280;58554;52.006;5.926;2023-06-10T05:14:43;100783.09;;;20.08;45.23
70909;BME280;58554;52.006;5.926;2023-06-10T05:17:10;100780.13;;;20.11;45.25
70909;BME280;58554;52.006;5.926;2023-06-10T05:19:39;100785.16;;;20.14;45.52
70909;BME280;58554;52.006;5.926;2023-06-10T05:22:05;100785.03;;;20.16;45.16
70909;BME280;58554;52.006;5.926;2023-06-10T05:24:32;100788.28;;;20.19;45.23
70909;BME280;58554;52.006;5.926;2023-06-10T05:26:58;100788.13;;;20.21;45.25
70909;BME280;58554;52.006;5.926;2023-06-10T05:29:25;100786.84;;;20.25;45.35
70909;BME280;58554;52.006;5.926;2023-06-10T05:31:52;100784.97;;;20.26;45.19
70909;BME280;58554;52.006;5.926;2023-06-10T05:34:18;100789.50;;;20.25;45.36
70909;BME280;58554;52.006;5.926;2023-06-10T05:36:47;100788.38;;;20.28;45.56
70909;BME280;58554;52.006;5.926;2023-06-10T05:39:14;100791.44;;;20.33;45.31
70909;BME280;58554;52.006;5.926;2023-06-10T05:41:40;100792.53;;;20.40;45.29
70909;BME280;58554;52.006;5.926;2023-06-10T05:44:06;100792.25;;;20.43;45.32
70909;BME280;58554;52.006;5.926;2023-06-10T05:46:33;100786.72;;;20.45;45.38
70909;BME280;58554;52.006;5.926;2023-06-10T05:49:00;100793.78;;;20.46;45.40
70909;BME280;58554;52.006;5.926;2023-06-10T05:51:26;100792.78;;;20.47;45.32
70909;BME280;58554;52.006;5.926;2023-06-10T05:53:55;100792.66;;;20.48;45.53
70909;BME280;58554;52.006;5.926;2023-06-10T05:56:22;100793.16;;;20.52;45.32
70909;BME280;58554;52.006;5.926;2023-06-10T05:58:49;100801.78;;;20.55;45.24
70909;BME280;58554;52.006;5.926;2023-06-10T06:01:15;100785.66;;;20.55;45.63
70909;BME280;58554;52.006;5.926;2023-06-10T06:03:42;100791.25;;;20.62;45.27
70909;BME280;58554;52.006;5.926;2023-06-10T06:06:09;100788.50;;;20.72;45.43
70909;BME280;58554;52.006;5.926;2023-06-10T06:08:35;100782.13;;;20.91;45.54
70909;BME280;58554;52.006;5.926;2023-06-10T06:11:04;100786.69;;;21.16;45.08
70909;BME280;58554;52.006;5.926;2023-06-10T06:13:31;100785.63;;;21.53;44.59
70909;BME280;58554;52.006;5.926;2023-06-10T06:15:57;100786.63;;;21.87;44.45
70909;BME280;58554;52.006;5.926;2023-06-10T06:18:24;100779.69;;;22.10;43.75
70909;BME280;58554;52.006;5.926;2023-06-10T06:20:50;100780.75;;;22.26;44.01
70909;BME280;58554;52.006;5.926;2023-06-10T06:23:17;100774.91;;;22.38;43.37
70909;BME280;58554;52.006;5.926;2023-06-10T06:25:43;100785.53;;;22.48;43.49
70909;BME280;58554;52.006;5.926;2023-06-10T06:28:12;100788.06;;;22.58;43.51
70909;BME280;58554;52.006;5.926;2023-06-10T06:30:39;100787.56;;;22.71;43.17
70909;BME280;58554;52.006;5.926;2023-06-10T06:33:05;100784.59;;;22.82;43.43
70909;BME280;58554;52.006;5.926;2023-06-10T06:35:32;100782.56;;;22.92;43.15
70909;BME280;58554;52.006;5.926;2023-06-10T06:37:59;100783.41;;;23.01;43.12
70909;BME280;58554;52.006;5.926;2023-06-10T06:40:26;100788.97;;;23.16;43.11
70909;BME280;58554;52.006;5.926;2023-06-10T06:42:52;100787.78;;;23.27;42.90
70909;BME280;58554;52.006;5.926;2023-06-10T06:45:22;100795.16;;;23.41;42.74
70909;BME280;58554;52.006;5.926;2023-06-10T06:47:48;100793.16;;;23.51;42.72
70909;BME280;58554;52.006;5.926;2023-06-10T06:50:15;100787.91;;;23.58;42.35
70909;BME280;58554;52.006;5.926;2023-06-10T06:52:42;100792.28;;;23.67;42.49
70909;BME280;58554;52.006;5.926;2023-06-10T06:55:08;100795.44;;;23.79;41.99
70909;BME280;58554;52.006;5.926;2023-06-10T06:57:35;100789.69;;;23.90;42.20
70909;BME280;58554;52.006;5.926;2023-06-10T07:00:02;100792.81;;;24.02;41.99
70909;BME280;58554;52.006;5.926;2023-06-10T07:02:32;100803.91;;;24.15;41.72
70909;BME280;58554;52.006;5.926;2023-06-10T07:04:58;100798.81;;;24.29;41.80
70909;BME280;58554;52.006;5.926;2023-06-10T07:07:25;100801.97;;;24.40;41.49
70909;BME280;58554;52.006;5.926;2023-06-10T07:09:52;100800.53;;;24.53;41.37
70909;BME280;58554;52.006;5.926;2023-06-10T07:12:18;100803.66;;;24.64;41.15
70909;BME280;58554;52.006;5.926;2023-06-10T07:14:45;100806.22;;;24.81;41.26
70909;BME280;58554;52.006;5.926;2023-06-10T07:17:11;100800.25;;;24.94;40.78
70909;BME280;58554;52.006;5.926;2023-06-10T07:19:40;100796.75;;;25.08;40.83
70909;BME280;58554;52.006;5.926;2023-06-10T07:22:07;100790.44;;;25.16;40.82
70909;BME280;58554;52.006;5.926;2023-06-10T07:24:33;100788.97;;;25.28;40.37
70909;BME280;58554;52.006;5.926;2023-06-10T07:27:00;100788.72;;;25.38;39.90
70909;BME280;58554;52.006;5.926;2023-06-10T07:29:26;100792.81;;;25.49;40.12
70909;BME280;58554;52.006;5.926;2023-06-10T07:31:53;100796.13;;;25.59;39.98
70909;BME280;58554;52.006;5.926;2023-06-10T07:34:19;100798.75;;;25.67;39.76
70909;BME280;58554;52.006;5.926;2023-06-10T07:36:48;100801.38;;;25.75;39.34
70909;BME280;58554;52.006;5.926;2023-06-10T07:39:15;100796.03;;;25.82;39.59
70909;BME280;58554;52.006;5.926;2023-06-10T07:41:41;100803.22;;;25.90;39.45
70909;BME280;58554;52.006;5.926;2023-06-10T07:44:08;100796.03;;;25.97;39.29
70909;BME280;58554;52.006;5.926;2023-06-10T07:46:34;100799.66;;;26.04;39.09
70909;BME280;58554;52.006;5.926;2023-06-10T07:49:01;100805.59;;;26.14;39.37
70909;BME280;58554;52.006;5.926;2023-06-10T07:51:27;100798.06;;;26.24;39.01
70909;BME280;58554;52.006;5.926;2023-06-10T07:53:56;100794.59;;;26.31;38.49
70909;BME280;58554;52.006;5.926;2023-06-10T07:56:23;100802.41;;;26.40;38.71
70909;BME280;58554;52.006;5.926;2023-06-10T07:58:49;100804.44;;;26.53;38.84
70909;BME280;58554;52.006;5.926;2023-06-10T08:01:15;100805.78;;;26.64;38.44
70909;BME280;58554;52.006;5.926;2023-06-10T08:03:42;100808.00;;;26.75;38.22
70909;BME280;58554;52.006;5.926;2023-06-10T08:06:09;100800.19;;;26.87;37.88
70909;BME280;58554;52.006;5.926;2023-06-10T08:08:35;100801.78;;;26.96;37.94
70909;BME280;58554;52.006;5.926;2023-06-10T08:11:04;100797.22;;;27.03;37.66
70909;BME280;58554;52.006;5.926;2023-06-10T08:13:31;100798.13;;;27.11;37.61
70909;BME280;58554;52.006;5.926;2023-06-10T08:15:57;100798.38;;;27.16;37.70
70909;BME280;58554;52.006;5.926;2023-06-10T08:18:24;100802.19;;;27.21;37.50
70909;BME280;58554;52.006;5.926;2023-06-10T08:20:50;100805.13;;;27.26;37.10
70909;BME280;58554;52.006;5.926;2023-06-10T08:23:17;100808.31;;;27.30;37.34
70909;BME280;58554;52.006;5.926;2023-06-10T08:25:43;100810.88;;;27.38;36.76
70909;BME280;58554;52.006;5.926;2023-06-10T08:28:12;100805.03;;;27.41;37.06
70909;BME280;58554;52.006;5.926;2023-06-10T08:30:39;100810.91;;;27.45;37.00
70909;BME280;58554;52.006;5.926;2023-06-10T08:33:05;100805.28;;;27.46;36.91
70909;BME280;58554;52.006;5.926;2023-06-10T08:35:32;100806.59;;;27.51;36.74
70909;BME280;58554;52.006;5.926;2023-06-10T08:37:59;100810.19;;;27.58;36.64
70909;BME280;58554;52.006;5.926;2023-06-10T08:40:25;100807.13;;;27.68;36.91
70909;BME280;58554;52.006;5.926;2023-06-10T08:42:58;100801.91;;;27.73;36.64
70909;BME280;58554;52.006;5.926;2023-06-10T08:45:34;100804.63;;;27.73;36.38
70909;BME280;58554;52.006;5.926;2023-06-10T08:48:03;100801.72;;;27.74;36.46
70909;BME280;58554;52.006;5.926;2023-06-10T08:50:31;100808.84;;;27.75;35.97
70909;BME280;58554;52.006;5.926;2023-06-10T08:52:59;100807.59;;;27.78;36.00
70909;BME280;58554;52.006;5.926;2023-06-10T08:55:31;100802.63;;;27.81;36.07
70909;BME280;58554;52.006;5.926;2023-06-10T08:58:00;100804.53;;;27.88;36.10
70909;BME280;58554;52.006;5.926;2023-06-10T09:00:28;100805.59;;;27.93;36.03
70909;BME280;58554;52.006;5.926;2023-06-10T09:02:59;100806.22;;;27.95;36.07
70909;BME280;58554;52.006;5.926;2023-06-10T09:05:27;100806.84;;;27.97;36.00
70909;BME280;58554;52.006;5.926;2023-06-10T09:07:57;100803.53;;;28.02;36.02
70909;BME280;58554;52.006;5.926;2023-06-10T09:10:23;100804.25;;;28.11;36.08
70909;BME280;58554;52.006;5.926;2023-06-10T09:12:50;100810.72;;;28.16;35.90
70909;BME280;58554;52.006;5.926;2023-06-10T09:15:17;100802.19;;;28.19;35.64
70909;BME280;58554;52.006;5.926;2023-06-10T09:17:44;100796.31;;;28.22;35.64
70909;BME280;58554;52.006;5.926;2023-06-10T09:20:13;100806.59;;;28.27;35.59
70909;BME280;58554;52.006;5.926;2023-06-10T09:22:41;100805.38;;;28.30;35.43
70909;BME280;58554;52.006;5.926;2023-06-10T09:25:10;100806.00;;;28.32;35.38
70909;BME280;58554;52.006;5.926;2023-06-10T09:27:44;100806.63;;;28.34;35.13
70909;BME280;58554;52.006;5.926;2023-06-10T09:30:24;100796.38;;;28.36;34.97
70909;BME280;58554;52.006;5.926;2023-06-10T09:32:53;100805.56;;;28.35;35.31
70909;BME280;58554;52.006;5.926;2023-06-10T09:35:23;100804.75;;;28.34;34.76
70909;BME280;58554;52.006;5.926;2023-06-10T09:37:52;100800.75;;;28.30;35.01
70909;BME280;58554;52.006;5.926;2023-06-10T09:40:19;100800.13;;;28.28;35.02
70909;BME280;58554;52.006;5.926;2023-06-10T09:42:46;100805.38;;;28.30;35.10
70909;BME280;58554;52.006;5.926;2023-06-10T09:45:19;100801.38;;;28.25;34.73
70909;BME280;58554;52.006;5.926;2023-06-10T09:47:46;100803.22;;;28.25;34.73
70909;BME280;58554;52.006;5.926;2023-06-10T09:50:13;100802.41;;;28.24;34.71
70909;BME280;58554;52.006;5.926;2023-06-10T09:52:42;100802.41;;;28.24;34.61
70909;BME280;58554;52.006;5.926;2023-06-10T09:55:12;100803.47;;;28.23;34.81
70909;BME280;58554;52.006;5.926;2023-06-10T09:57:38;100795.31;;;28.23;34.84
70909;BME280;58554;52.006;5.926;2023-06-10T10:00:07;100791.72;;;28.23;34.79
70909;BME280;58554;52.006;5.926;2023-06-10T10:02:44;100794.69;;;28.28;34.83
70909;BME280;58554;52.006;5.926;2023-06-10T10:05:13;100791.34;;;28.33;34.37
70909;BME280;58554;52.006;5.926;2023-06-10T10:07:44;100795.75;;;28.34;34.63
70909;BME280;58554;52.006;5.926;2023-06-10T10:10:12;100784.44;;;28.37;34.11
70909;BME280;58554;52.006;5.926;2023-06-10T10:12:40;100792.16;;;28.33;34.40
70909;BME280;58554;52.006;5.926;2023-06-10T10:15:10;100792.16;;;28.33;34.07
70909;BME280;58554;52.006;5.926;2023-06-10T10:17:40;100790.72;;;28.37;34.22
70909;BME280;58554;52.006;5.926;2023-06-10T10:20:13;100793.88;;;28.41;33.75
70909;BME280;58554;52.006;5.926;2023-06-10T10:22:47;100787.81;;;28.45;33.89
70909;BME280;58554;52.006;5.926;2023-06-10T10:25:18;100787.63;;;28.47;33.53
70909;BME280;58554;52.006;5.926;2023-06-10T10:27:52;100786.59;;;28.48;33.35
70909;BME280;58554;52.006;5.926;2023-06-10T10:30:23;100788.06;;;28.51;33.14
70909;BME280;58554;52.006;5.926;2023-06-10T10:32:56;100791.81;;;28.50;32.92
70909;BME280;58554;52.006;5.926;2023-06-10T10:35:26;100782.81;;;28.49;33.12
70909;BME280;58554;52.006;5.926;2023-06-10T10:37:56;100778.44;;;28.48;32.64
70909;BME280;58554;52.006;5.926;2023-06-10T10:40:23;100779.06;;;28.50;32.24
70909;BME280;58554;52.006;5.926;2023-06-10T10:42:52;100774.25;;;28.52;32.27
70909;BME280;58554;52.006;5.926;2023-06-10T10:45:21;100775.50;;;28.56;32.60
70909;BME280;58554;52.006;5.926;2023-06-10T10:47:52;100766.94;;;28.59;32.00
70909;BME280;58554;52.006;5.926;2023-06-10T10:50:20;100771.94;;;28.62;32.25
70909;BME280;58554;52.006;5.926;2023-06-10T10:52:53;100770.91;;;28.63;31.92
70909;BME280;58554;52.006;5.926;2023-06-10T10:55:26;100771.53;;;28.65;32.07
70909;BME280;58554;52.006;5.926;2023-06-10T10:57:54;100773.47;;;28.72;31.58
70909;BME280;58554;52.006;5.926;2023-06-10T11:00:27;100763.22;;;28.74;31.76
70909;BME280;58554;52.006;5.926;2023-06-10T11:02:58;100771.19;;;28.75;31.54
70909;BME280;58554;52.006;5.926;2023-06-10T11:05:36;100766.56;;;28.76;31.27
70909;BME280;58554;52.006;5.926;2023-06-10T11:08:08;100766.56;;;28.76;31.15
70909;BME280;58554;52.006;5.926;2023-06-10T11:10:36;100767.81;;;28.80;31.47
70909;BME280;58554;52.006;5.926;2023-06-10T11:13:08;100759.84;;;28.85;30.82
70909;BME280;58554;52.006;5.926;2023-06-10T11:15:39;100761.94;;;28.90;31.30
70909;BME280;58554;52.006;5.926;2023-06-10T11:18:14;100764.47;;;28.91;31.08
70909;BME280;58554;52.006;5.926;2023-06-10T11:20:52;100755.03;;;28.94;31.09
70909;BME280;58554;52.006;5.926;2023-06-10T11:23:40;100741.84;;;28.97;30.59
70909;BME280;58554;52.006;5.926;2023-06-10T11:26:11;100746.66;;;29.02;30.84
70909;BME280;58554;52.006;5.926;2023-06-10T11:28:40;100742.88;;;29.10;31.07
70909;BME280;58554;52.006;5.926;2023-06-10T11:31:09;100743.94;;;29.15;30.74
70909;BME280;58554;52.006;5.926;2023-06-10T11:33:46;100742.22;;;29.21;30.57
70909;BME280;58554;52.006;5.926;2023-06-10T11:36:13;100742.66;;;29.24;30.44
70909;BME280;58554;52.006;5.926;2023-06-10T11:38:43;100736.19;;;29.25;30.56
70909;BME280;58554;52.006;5.926;2023-06-10T11:41:11;100747.28;;;29.31;30.60
70909;BME280;58554;52.006;5.926;2023-06-10T11:43:40;100753.78;;;29.36;30.48
70909;BME280;58554;52.006;5.926;2023-06-10T11:46:09;100752.72;;;29.44;30.37
70909;BME280;58554;52.006;5.926;2023-06-10T11:48:36;100755.44;;;29.51;30.43
70909;BME280;58554;52.006;5.926;2023-06-10T11:51:06;100740.34;;;29.55;29.91
70909;BME280;58554;52.006;5.926;2023-06-10T11:53:32;100743.84;;;29.62;30.17
70909;BME280;58554;52.006;5.926;2023-06-10T11:56:03;100746.78;;;29.67;29.77
70909;BME280;58554;52.006;5.926;2023-06-10T11:58:29;100750.53;;;29.73;30.06
70909;BME280;58554;52.006;5.926;2023-06-10T12:00:56;100749.28;;;29.75;29.99
70909;BME280;58554;52.006;5.926;2023-06-10T12:03:22;100742.97;;;29.81;29.98
70909;BME280;58554;52.006;5.926;2023-06-10T12:05:56;100738.34;;;29.89;29.63
70909;BME280;58554;52.006;5.926;2023-06-10T12:08:23;100731.56;;;29.98;29.41
70909;BME280;58554;52.006;5.926;2023-06-10T12:10:50;100732.41;;;30.05;29.70
70909;BME280;58554;52.006;5.926;2023-06-10T12:13:20;100726.91;;;30.12;29.48
70909;BME280;58554;52.006;5.926;2023-06-10T12:15:47;100723.09;;;30.19;29.39
70909;BME280;58554;52.006;5.926;2023-06-10T12:18:16;100729.13;;;30.28;29.55
70909;BME280;58554;52.006;5.926;2023-06-10T12:20:43;100715.00;;;30.38;29.04
70909;BME280;58554;52.006;5.926;2023-06-10T12:23:10;100718.31;;;30.46;29.25
70909;BME280;58554;52.006;5.926;2023-06-10T12:25:38;100723.50;;;30.55;29.26
70909;BME280;58554;52.006;5.926;2023-06-10T12:28:05;100715.06;;;30.63;29.07
70909;BME280;58554;52.006;5.926;2023-06-10T12:30:34;100712.06;;;30.71;29.18
70909;BME280;58554;52.006;5.926;2023-06-10T12:33:01;100712.00;;;30.78;28.80
70909;BME280;58554;52.006;5.926;2023-06-10T12:35:28;100720.56;;;30.81;28.86
70909;BME280;58554;52.006;5.926;2023-06-10T12:37:55;100713.38;;;30.87;28.95
70909;BME280;58554;52.006;5.926;2023-06-10T12:40:25;100704.47;;;30.98;28.44
70909;BME280;58554;52.006;5.926;2023-06-10T12:42:54;100705.63;;;31.09;28.44
70909;BME280;58554;52.006;5.926;2023-06-10T12:45:26;100703.91;;;31.15;28.58
70909;BME280;58554;52.006;5.926;2023-06-10T12:48:04;100709.66;;;31.25;27.98
70909;BME280;58554;52.006;5.926;2023-06-10T12:50:31;100707.50;;;31.34;28.05
70909;BME280;58554;52.006;5.926;2023-06-10T12:52:59;100703.00;;;31.39;27.98
70909;BME280;58554;52.006;5.926;2023-06-10T12:55:25;100694.13;;;31.44;27.89